createdAt,value
2019-01-29T00:00:35.982Z,20.00
2019-01-29T00:01:35.414Z,20.00
2019-01-29T00:02:32.090Z,20.00
2019-01-29T00:03:28.802Z,19.94
2019-01-29T00:04:25.540Z,19.94
2019-01-29T00:05:22.214Z,19.94
2019-01-29T00:06:18.908Z,19.94
2019-01-29T00:07:15.926Z,19.94
2019-01-29T00:08:12.565Z,19.94
2019-01-29T00:09:09.159Z,19.94
2019-01-29T00:10:05.803Z,19.94
2019-01-29T00:11:02.654Z,19.94
2019-01-29T00:11:59.264Z,19.87
2019-01-29T00:12:55.863Z,19.87
2019-01-29T00:13:52.783Z,19.87
2019-01-29T00:14:49.384Z,19.87
2019-01-29T00:15:46.049Z,19.87
2019-01-29T00:16:43.077Z,19.87
2019-01-29T00:17:39.713Z,19.87
2019-01-29T00:18:36.567Z,19.81
2019-01-29T00:19:33.215Z,19.81
2019-01-29T00:20:29.833Z,19.81
2019-01-29T00:21:26.456Z,19.81
2019-01-29T00:22:23.193Z,19.81
2019-01-29T00:23:19.789Z,19.81
2019-01-29T00:24:16.614Z,19.81
2019-01-29T00:25:13.215Z,19.81
2019-01-29T00:26:10.178Z,19.75
2019-01-29T00:27:06.914Z,19.75
2019-01-29T00:28:03.544Z,19.75
2019-01-29T00:29:00.275Z,19.75
2019-01-29T00:29:56.987Z,19.75
2019-01-29T00:30:53.594Z,19.75
2019-01-29T00:31:50.186Z,19.75
2019-01-29T00:32:46.813Z,19.69
2019-01-29T00:33:43.530Z,19.69
2019-01-29T00:34:40.243Z,19.69
2019-01-29T00:35:36.863Z,19.69
2019-01-29T00:36:33.463Z,19.69
2019-01-29T00:37:30.078Z,19.69
2019-01-29T00:38:26.686Z,19.69
2019-01-29T00:39:23.310Z,19.69
2019-01-29T00:40:19.952Z,19.62
2019-01-29T00:41:16.716Z,19.62
2019-01-29T00:42:13.309Z,19.62
2019-01-29T00:43:09.952Z,19.62
2019-01-29T00:44:06.558Z,19.62
2019-01-29T00:45:03.191Z,19.62
2019-01-29T00:45:59.877Z,19.62
2019-01-29T00:46:56.549Z,19.62
2019-01-29T00:47:53.171Z,19.62
2019-01-29T00:48:50.284Z,19.56
2019-01-29T00:49:47.018Z,19.56
2019-01-29T00:50:43.665Z,19.56
2019-01-29T00:51:41.334Z,19.56
2019-01-29T00:52:42.054Z,19.56
2019-01-29T00:53:39.505Z,19.56
2019-01-29T00:54:36.217Z,19.56
2019-01-29T00:55:33.092Z,19.50
2019-01-29T00:56:29.769Z,19.50
2019-01-29T00:57:26.662Z,19.50
2019-01-29T00:58:23.378Z,19.50
2019-01-29T00:59:20.078Z,19.50
2019-01-29T01:00:16.889Z,19.50
2019-01-29T01:01:13.531Z,19.50
2019-01-29T01:02:10.434Z,19.50
2019-01-29T01:03:07.129Z,19.50
2019-01-29T01:04:03.820Z,19.44
2019-01-29T01:05:00.553Z,19.44
2019-01-29T01:05:57.302Z,19.44
2019-01-29T01:06:54.245Z,19.44
2019-01-29T01:07:50.960Z,19.44
2019-01-29T01:08:47.676Z,19.44
2019-01-29T01:09:44.272Z,19.44
2019-01-29T01:10:41.126Z,19.44
2019-01-29T01:11:37.808Z,19.44
2019-01-29T01:12:34.662Z,19.37
2019-01-29T01:13:31.412Z,19.37
2019-01-29T01:14:28.130Z,19.37
2019-01-29T01:15:24.957Z,19.37
2019-01-29T01:16:21.559Z,19.37
2019-01-29T01:17:18.471Z,19.37
2019-01-29T01:18:15.091Z,19.37
2019-01-29T01:19:12.983Z,19.37
2019-01-29T01:20:09.699Z,19.31
2019-01-29T01:21:06.299Z,19.31
2019-01-29T01:22:03.196Z,19.31
2019-01-29T01:23:01.898Z,19.31
2019-01-29T01:23:58.622Z,19.31
2019-01-29T01:24:55.370Z,19.31
2019-01-29T01:25:52.071Z,19.31
2019-01-29T01:26:48.897Z,19.31
2019-01-29T01:27:46.817Z,19.31
2019-01-29T01:28:43.574Z,19.31
2019-01-29T01:29:42.216Z,19.31
2019-01-29T01:30:38.815Z,19.25
2019-01-29T01:31:35.454Z,19.25
2019-01-29T01:32:32.059Z,19.25
2019-01-29T01:33:28.928Z,19.25
2019-01-29T01:34:25.612Z,19.25
2019-01-29T01:35:22.298Z,19.25
2019-01-29T01:36:19.119Z,19.25
2019-01-29T01:37:15.733Z,19.25
2019-01-29T01:38:13.901Z,19.25
2019-01-29T01:39:10.547Z,19.19
2019-01-29T01:40:07.473Z,19.19
2019-01-29T01:41:04.117Z,19.19
2019-01-29T01:42:00.994Z,19.19
2019-01-29T01:42:57.709Z,19.19
2019-01-29T01:43:54.962Z,19.19
2019-01-29T01:44:51.566Z,19.19
2019-01-29T01:45:48.162Z,19.19
2019-01-29T01:46:44.823Z,19.19
2019-01-29T01:47:41.465Z,19.19
2019-01-29T01:48:38.158Z,19.12
2019-01-29T01:49:34.945Z,19.12
2019-01-29T01:50:31.562Z,19.12
2019-01-29T01:51:28.166Z,19.12
2019-01-29T01:52:25.066Z,19.12
2019-01-29T01:53:21.776Z,19.12
2019-01-29T01:54:18.498Z,19.12
2019-01-29T01:55:15.406Z,19.12
2019-01-29T01:56:12.002Z,19.12
2019-01-29T01:57:08.606Z,19.12
2019-01-29T01:58:05.272Z,19.06
2019-01-29T01:59:04.979Z,19.06
2019-01-29T02:00:01.675Z,19.06
2019-01-29T02:00:58.262Z,19.06
2019-01-29T02:01:54.866Z,19.06
2019-01-29T02:02:51.525Z,19.06
2019-01-29T02:03:48.139Z,19.06
2019-01-29T02:04:44.747Z,19.06
2019-01-29T02:05:41.436Z,19.06
2019-01-29T02:06:38.059Z,19.06
2019-01-29T02:07:34.679Z,19.06
2019-01-29T02:08:31.413Z,19.06
2019-01-29T02:09:28.027Z,19.00
2019-01-29T02:10:26.346Z,19.00
2019-01-29T02:11:22.938Z,19.00
2019-01-29T02:12:19.550Z,19.00
2019-01-29T02:13:16.163Z,19.00
2019-01-29T02:14:12.961Z,19.00
2019-01-29T02:15:09.675Z,19.00
2019-01-29T02:16:06.274Z,19.00
2019-01-29T02:17:02.874Z,19.00
2019-01-29T02:17:59.522Z,18.94
2019-01-29T02:18:56.259Z,18.94
2019-01-29T02:19:52.975Z,18.94
2019-01-29T02:20:49.570Z,18.94
2019-01-29T02:21:46.165Z,18.94
2019-01-29T02:22:43.130Z,18.94
2019-01-29T02:23:39.765Z,18.94
2019-01-29T02:24:36.378Z,18.94
2019-01-29T02:25:34.098Z,18.94
2019-01-29T02:26:30.706Z,18.94
2019-01-29T02:27:27.446Z,18.94
2019-01-29T02:28:24.126Z,18.94
2019-01-29T02:29:20.936Z,18.87
2019-01-29T02:30:17.724Z,18.87
2019-01-29T02:31:14.330Z,18.87
2019-01-29T02:32:11.270Z,18.87
2019-01-29T02:33:07.892Z,18.87
2019-01-29T02:34:06.908Z,18.87
2019-01-29T02:35:06.130Z,18.87
2019-01-29T02:36:02.809Z,18.87
2019-01-29T02:36:59.870Z,18.87
2019-01-29T02:37:56.482Z,18.87
2019-01-29T02:38:53.178Z,18.87
2019-01-29T02:39:49.830Z,18.81
2019-01-29T02:40:46.461Z,18.81
2019-01-29T02:41:43.166Z,18.81
2019-01-29T02:42:39.862Z,18.81
2019-01-29T02:43:36.550Z,18.81
2019-01-29T02:44:33.491Z,18.81
2019-01-29T02:45:30.095Z,18.81
2019-01-29T02:46:26.692Z,18.81
2019-01-29T02:47:23.321Z,18.81
2019-01-29T02:48:19.921Z,18.81
2019-01-29T02:49:18.344Z,18.81
2019-01-29T02:50:15.294Z,18.81
2019-01-29T02:51:11.914Z,18.75
2019-01-29T02:52:08.526Z,18.75
2019-01-29T02:53:05.114Z,18.75
2019-01-29T02:54:01.994Z,18.75
2019-01-29T02:54:58.638Z,18.75
2019-01-29T02:55:55.249Z,18.75
2019-01-29T02:56:51.868Z,18.75
2019-01-29T02:57:48.701Z,18.75
2019-01-29T02:58:47.822Z,18.75
2019-01-29T02:59:44.426Z,18.75
2019-01-29T03:00:41.054Z,18.75
2019-01-29T03:01:40.830Z,18.69
2019-01-29T03:02:37.495Z,18.69
2019-01-29T03:03:34.086Z,18.69
2019-01-29T03:04:30.674Z,18.69
2019-01-29T03:05:27.300Z,18.69
2019-01-29T03:06:23.906Z,18.69
2019-01-29T03:07:20.547Z,18.69
2019-01-29T03:08:17.677Z,18.69
2019-01-29T03:09:14.279Z,18.69
2019-01-29T03:10:10.995Z,18.69
2019-01-29T03:11:07.618Z,18.69
2019-01-29T03:12:04.234Z,18.69
2019-01-29T03:13:01.160Z,18.69
2019-01-29T03:13:57.856Z,18.69
2019-01-29T03:14:54.442Z,18.62
2019-01-29T03:15:51.102Z,18.62
2019-01-29T03:16:47.717Z,18.62
2019-01-29T03:17:44.306Z,18.62
2019-01-29T03:18:41.050Z,18.62
2019-01-29T03:19:37.762Z,18.62
2019-01-29T03:20:34.453Z,18.62
2019-01-29T03:21:31.660Z,18.62
2019-01-29T03:22:28.645Z,18.62
2019-01-29T03:23:27.587Z,18.62
2019-01-29T03:24:23.863Z,18.62
2019-01-29T03:25:20.510Z,18.62
2019-01-29T03:26:17.118Z,18.56
2019-01-29T03:27:13.733Z,18.62
2019-01-29T03:28:10.338Z,18.56
2019-01-29T03:29:07.267Z,18.56
2019-01-29T03:30:03.886Z,18.56
2019-01-29T03:31:00.496Z,18.56
2019-01-29T03:31:57.222Z,18.56
2019-01-29T03:32:53.956Z,18.56
2019-01-29T03:33:50.666Z,18.56
2019-01-29T03:34:47.269Z,18.56
2019-01-29T03:35:43.865Z,18.56
2019-01-29T03:36:40.510Z,18.56
2019-01-29T03:37:37.395Z,18.56
2019-01-29T03:38:33.991Z,18.56
2019-01-29T03:39:30.593Z,18.50
2019-01-29T03:40:27.200Z,18.50
2019-01-29T03:41:24.154Z,18.50
2019-01-29T03:42:20.923Z,18.50
2019-01-29T03:43:17.678Z,18.50
2019-01-29T03:44:14.395Z,18.50
2019-01-29T03:45:10.995Z,18.50
2019-01-29T03:46:07.930Z,18.50
2019-01-29T03:47:04.920Z,18.50
2019-01-29T03:48:01.534Z,18.50
2019-01-29T03:48:58.134Z,18.50
2019-01-29T03:49:54.827Z,18.50
2019-01-29T03:50:51.479Z,18.50
2019-01-29T03:51:48.345Z,18.50
2019-01-29T03:52:44.950Z,18.50
2019-01-29T03:53:41.566Z,18.50
2019-01-29T03:54:38.170Z,18.44
2019-01-29T03:55:34.746Z,18.44
2019-01-29T03:56:31.563Z,18.44
2019-01-29T03:57:31.018Z,18.44
2019-01-29T03:58:27.687Z,18.44
2019-01-29T03:59:24.371Z,18.44
2019-01-29T04:00:20.988Z,18.44
2019-01-29T04:01:17.940Z,18.44
2019-01-29T04:02:14.581Z,18.44
2019-01-29T04:03:11.407Z,18.44
2019-01-29T04:04:08.109Z,18.37
2019-01-29T04:05:04.707Z,18.44
2019-01-29T04:06:01.421Z,18.44
2019-01-29T04:06:58.159Z,18.37
2019-01-29T04:07:54.854Z,18.37
2019-01-29T04:08:51.487Z,18.37
2019-01-29T04:09:47.971Z,18.37
2019-01-29T04:10:44.571Z,18.37
2019-01-29T04:11:41.546Z,18.37
2019-01-29T04:12:38.144Z,18.37
2019-01-29T04:13:34.768Z,18.37
2019-01-29T04:14:31.471Z,18.37
2019-01-29T04:15:28.057Z,18.37
2019-01-29T04:16:27.397Z,18.37
2019-01-29T04:17:24.012Z,18.37
2019-01-29T04:18:20.706Z,18.37
2019-01-29T04:19:17.350Z,18.37
2019-01-29T04:20:14.174Z,18.37
2019-01-29T04:21:10.959Z,18.31
2019-01-29T04:22:07.936Z,18.31
2019-01-29T04:23:04.871Z,18.31
2019-01-29T04:24:01.515Z,18.31
2019-01-29T04:24:58.378Z,18.31
2019-01-29T04:25:55.061Z,18.31
2019-01-29T04:26:53.699Z,18.31
2019-01-29T04:27:50.671Z,18.31
2019-01-29T04:28:47.606Z,18.31
2019-01-29T04:29:44.218Z,18.31
2019-01-29T04:30:40.869Z,18.31
2019-01-29T04:31:37.558Z,18.31
2019-01-29T04:32:36.157Z,18.31
2019-01-29T04:33:32.869Z,18.31
2019-01-29T04:34:29.468Z,18.31
2019-01-29T04:35:26.079Z,18.25
2019-01-29T04:36:22.706Z,18.25
2019-01-29T04:37:19.677Z,18.25
2019-01-29T04:38:19.139Z,18.25
2019-01-29T04:39:15.737Z,18.25
2019-01-29T04:40:12.819Z,18.25
2019-01-29T04:41:09.771Z,18.25
2019-01-29T04:42:06.381Z,18.25
2019-01-29T04:43:03.001Z,18.25
2019-01-29T04:43:59.733Z,18.25
2019-01-29T04:44:56.731Z,18.25
2019-01-29T04:45:53.427Z,18.25
2019-01-29T04:46:50.154Z,18.25
2019-01-29T04:47:46.777Z,18.25
2019-01-29T04:48:43.483Z,18.25
2019-01-29T04:49:40.095Z,18.25
2019-01-29T04:50:36.936Z,18.19
2019-01-29T04:51:33.557Z,18.19
2019-01-29T04:52:30.557Z,18.19
2019-01-29T04:53:27.150Z,18.19
2019-01-29T04:54:23.750Z,18.19
2019-01-29T04:55:20.373Z,18.19
2019-01-29T04:56:17.109Z,18.19
2019-01-29T04:57:13.748Z,18.19
2019-01-29T04:58:10.791Z,18.19
2019-01-29T04:59:07.397Z,18.19
2019-01-29T05:00:04.108Z,18.19
2019-01-29T05:01:00.833Z,18.12
2019-01-29T05:01:57.413Z,18.12
2019-01-29T05:02:54.304Z,18.12
2019-01-29T05:03:50.977Z,18.12
2019-01-29T05:04:47.850Z,18.12
2019-01-29T05:05:44.447Z,18.06
2019-01-29T05:06:41.075Z,18.06
2019-01-29T05:07:37.682Z,18.06
2019-01-29T05:08:34.305Z,18.00
2019-01-29T05:09:30.942Z,18.00
2019-01-29T05:10:27.631Z,17.94
2019-01-29T05:11:24.414Z,17.94
2019-01-29T05:12:21.015Z,17.87
2019-01-29T05:13:17.614Z,17.81
2019-01-29T05:14:14.206Z,17.75
2019-01-29T05:15:11.269Z,17.69
2019-01-29T05:16:07.881Z,17.56
2019-01-29T05:17:04.877Z,17.44
2019-01-29T05:18:01.778Z,17.31
2019-01-29T05:18:58.382Z,17.12
2019-01-29T05:19:54.971Z,17.00
2019-01-29T05:20:51.606Z,16.81
2019-01-29T05:21:48.818Z,16.69
2019-01-29T05:22:45.424Z,16.56
2019-01-29T05:23:42.133Z,16.50
2019-01-29T05:24:38.750Z,16.44
2019-01-29T05:25:35.362Z,16.37
2019-01-29T05:26:31.962Z,16.37
2019-01-29T05:27:28.590Z,16.31
2019-01-29T05:28:25.192Z,16.31
2019-01-29T05:29:21.800Z,16.31
2019-01-29T05:30:20.574Z,16.31
2019-01-29T05:31:17.154Z,16.31
2019-01-29T05:32:13.867Z,16.31
2019-01-29T05:33:10.798Z,16.31
2019-01-29T05:34:07.418Z,16.31
2019-01-29T05:35:04.047Z,16.31
2019-01-29T05:36:00.651Z,16.31
2019-01-29T05:36:57.308Z,16.31
2019-01-29T05:37:54.014Z,16.31
2019-01-29T05:38:50.711Z,16.31
2019-01-29T05:39:49.142Z,16.37
2019-01-29T05:40:45.844Z,16.37
2019-01-29T05:41:42.434Z,16.37
2019-01-29T05:42:39.125Z,16.44
2019-01-29T05:43:35.802Z,16.50
2019-01-29T05:44:32.476Z,16.62
2019-01-29T05:45:29.182Z,16.69
2019-01-29T05:46:25.794Z,16.87
2019-01-29T05:47:22.930Z,17.12
2019-01-29T05:48:19.555Z,17.37
2019-01-29T05:49:17.150Z,17.62
2019-01-29T05:50:14.074Z,18.00
2019-01-29T05:51:11.022Z,18.37
2019-01-29T05:52:07.649Z,18.75
2019-01-29T05:53:04.520Z,19.25
2019-01-29T05:54:01.234Z,19.87
2019-01-29T05:54:57.927Z,20.50
2019-01-29T05:55:54.724Z,21.12
2019-01-29T05:56:51.338Z,21.81
2019-01-29T05:57:47.964Z,22.44
2019-01-29T05:58:44.897Z,23.12
2019-01-29T05:59:41.627Z,23.81
2019-01-29T06:00:39.973Z,25.00
2019-01-29T06:01:36.588Z,27.50
2019-01-29T06:02:33.201Z,26.81
2019-01-29T06:03:29.864Z,27.56
2019-01-29T06:04:26.478Z,32.06
2019-01-29T06:05:23.426Z,35.25
2019-01-29T06:06:22.614Z,36.31
2019-01-29T06:07:19.538Z,36.25
2019-01-29T06:08:16.517Z,35.88
2019-01-29T06:09:13.180Z,36.06
2019-01-29T06:10:09.908Z,36.31
2019-01-29T06:11:06.590Z,36.50
2019-01-29T06:12:03.256Z,36.38
2019-01-29T06:12:59.956Z,35.88
2019-01-29T06:13:56.842Z,34.50
2019-01-29T06:14:53.566Z,32.44
2019-01-29T06:15:50.198Z,30.06
2019-01-29T06:16:47.176Z,28.87
2019-01-29T06:17:43.801Z,29.19
2019-01-29T06:18:41.029Z,30.31
2019-01-29T06:19:37.778Z,31.56
2019-01-29T06:20:34.402Z,32.69
2019-01-29T06:21:31.027Z,33.56
2019-01-29T06:22:27.628Z,34.19
2019-01-29T06:23:24.506Z,34.69
2019-01-29T06:24:25.913Z,35.06
2019-01-29T06:25:23.209Z,35.38
2019-01-29T06:26:19.837Z,35.63
2019-01-29T06:27:17.002Z,35.88
2019-01-29T06:28:13.711Z,36.00
2019-01-29T06:29:10.318Z,36.19
2019-01-29T06:30:06.951Z,36.31
2019-01-29T06:31:03.600Z,36.38
2019-01-29T06:32:00.347Z,36.50
2019-01-29T06:32:57.019Z,36.63
2019-01-29T06:33:53.641Z,36.75
2019-01-29T06:34:50.250Z,36.88
2019-01-29T06:35:47.238Z,37.00
2019-01-29T06:36:43.877Z,37.13
2019-01-29T06:37:40.828Z,37.25
2019-01-29T06:38:37.566Z,37.38
2019-01-29T06:39:34.294Z,37.44
2019-01-29T06:40:31.032Z,37.56
2019-01-29T06:41:27.662Z,37.69
2019-01-29T06:42:24.290Z,37.81
2019-01-29T06:43:21.134Z,37.88
2019-01-29T06:44:17.855Z,38.00
2019-01-29T06:45:14.485Z,38.19
2019-01-29T06:46:11.440Z,38.38
2019-01-29T06:47:08.070Z,38.50
2019-01-29T06:48:04.972Z,38.63
2019-01-29T06:49:03.754Z,38.81
2019-01-29T06:50:00.357Z,38.94
2019-01-29T06:50:57.224Z,39.06
2019-01-29T06:51:53.856Z,39.19
2019-01-29T06:52:50.763Z,39.38
2019-01-29T06:53:47.350Z,39.50
2019-01-29T06:54:43.948Z,39.56
2019-01-29T06:55:40.574Z,39.44
2019-01-29T06:56:37.212Z,39.19
2019-01-29T06:57:33.879Z,39.00
2019-01-29T06:58:30.532Z,38.81
2019-01-29T06:59:27.233Z,38.69
2019-01-29T07:00:23.893Z,38.63
2019-01-29T07:01:23.030Z,38.50
2019-01-29T07:02:20.298Z,38.44
2019-01-29T07:03:17.296Z,38.38
2019-01-29T07:04:14.061Z,38.31
2019-01-29T07:05:11.019Z,38.25
2019-01-29T07:06:07.659Z,38.19
2019-01-29T07:07:04.285Z,38.13
2019-01-29T07:08:01.421Z,37.94
2019-01-29T07:08:59.442Z,37.50
2019-01-29T07:09:56.079Z,36.56
2019-01-29T07:10:52.726Z,35.25
2019-01-29T07:11:49.463Z,33.69
2019-01-29T07:12:46.188Z,32.38
2019-01-29T07:13:43.360Z,31.87
2019-01-29T07:14:40.057Z,32.63
2019-01-29T07:15:55.135Z,33.94
2019-01-29T07:17:14.537Z,35.75
2019-01-29T07:18:49.415Z,37.19
2019-01-29T07:19:48.839Z,38.38
2019-01-29T07:20:45.542Z,38.94
2019-01-29T07:21:42.516Z,39.31
2019-01-29T07:22:39.418Z,39.63
2019-01-29T07:23:36.095Z,39.81
2019-01-29T07:24:32.733Z,39.88
2019-01-29T07:25:29.354Z,39.69
2019-01-29T07:26:28.474Z,39.44
2019-01-29T07:27:25.323Z,39.19
2019-01-29T07:28:22.441Z,39.00
2019-01-29T07:29:19.202Z,38.88
2019-01-29T07:30:15.821Z,38.75
2019-01-29T07:31:12.518Z,38.63
2019-01-29T07:32:09.214Z,38.56
2019-01-29T07:33:05.815Z,38.44
2019-01-29T07:34:02.448Z,38.38
2019-01-29T07:34:59.075Z,38.31
2019-01-29T07:35:55.868Z,38.13
2019-01-29T07:36:52.470Z,37.75
2019-01-29T07:37:49.098Z,37.00
2019-01-29T07:38:45.718Z,35.94
2019-01-29T07:39:42.331Z,34.63
2019-01-29T07:40:39.198Z,33.25
2019-01-29T07:41:35.911Z,32.25
2019-01-29T07:42:32.703Z,32.25
2019-01-29T07:43:29.452Z,33.38
2019-01-29T07:44:26.092Z,34.81
2019-01-29T07:45:22.843Z,36.25
2019-01-29T07:46:19.563Z,37.44
2019-01-29T07:47:18.337Z,38.44
2019-01-29T07:48:15.132Z,39.25
2019-01-29T07:49:11.760Z,39.75
2019-01-29T07:50:08.412Z,39.81
2019-01-29T07:51:05.415Z,39.63
2019-01-29T07:52:02.583Z,39.38
2019-01-29T07:52:59.451Z,39.19
2019-01-29T07:53:56.106Z,39.00
2019-01-29T07:54:52.753Z,38.81
2019-01-29T07:55:49.618Z,38.69
2019-01-29T07:56:46.293Z,38.56
2019-01-29T07:57:44.842Z,38.44
2019-01-29T07:58:41.837Z,38.38
2019-01-29T07:59:38.547Z,38.19
2019-01-29T08:00:35.192Z,37.88
2019-01-29T08:01:32.011Z,37.25
2019-01-29T08:02:28.655Z,36.19
2019-01-29T08:03:26.024Z,34.88
2019-01-29T08:04:22.716Z,33.50
2019-01-29T08:05:22.144Z,32.44
2019-01-29T08:06:18.808Z,32.38
2019-01-29T08:07:15.758Z,33.44
2019-01-29T08:08:12.406Z,35.00
2019-01-29T08:09:09.082Z,36.44
2019-01-29T08:10:06.090Z,37.75
2019-01-29T08:11:02.816Z,38.88
2019-01-29T08:11:59.502Z,39.56
2019-01-29T08:12:56.697Z,39.63
2019-01-29T08:13:53.659Z,39.50
2019-01-29T08:14:50.406Z,39.31
2019-01-29T08:15:47.100Z,39.06
2019-01-29T08:16:43.841Z,38.94
2019-01-29T08:17:43.014Z,38.75
2019-01-29T08:18:41.358Z,38.56
2019-01-29T08:19:37.950Z,38.44
2019-01-29T08:20:34.553Z,38.38
2019-01-29T08:21:31.162Z,38.13
2019-01-29T08:22:27.808Z,37.69
2019-01-29T08:23:24.486Z,36.94
2019-01-29T08:24:21.110Z,35.94
2019-01-29T08:25:17.826Z,34.63
2019-01-29T08:26:14.573Z,33.31
2019-01-29T08:27:11.499Z,32.31
2019-01-29T08:28:08.148Z,32.31
2019-01-29T08:29:04.768Z,33.38
2019-01-29T08:30:01.410Z,34.94
2019-01-29T08:30:58.344Z,36.50
2019-01-29T08:31:55.224Z,37.94
2019-01-29T08:32:51.839Z,39.00
2019-01-29T08:33:48.447Z,39.50
2019-01-29T08:34:45.515Z,39.50
2019-01-29T08:35:42.139Z,39.38
2019-01-29T08:36:38.775Z,39.19
2019-01-29T08:37:35.679Z,39.00
2019-01-29T08:38:32.284Z,38.75
2019-01-29T08:39:28.925Z,38.56
2019-01-29T08:40:25.531Z,38.44
2019-01-29T08:41:22.474Z,38.31
2019-01-29T08:42:19.273Z,38.13
2019-01-29T08:43:16.133Z,37.75
2019-01-29T08:44:12.855Z,37.06
2019-01-29T08:45:09.454Z,36.13
2019-01-29T08:46:06.182Z,34.88
2019-01-29T08:47:02.857Z,33.56
2019-01-29T08:47:59.455Z,32.44
2019-01-29T08:48:56.071Z,32.13
2019-01-29T08:50:00.265Z,33.00
2019-01-29T08:50:56.937Z,34.75
2019-01-29T08:51:53.537Z,36.31
2019-01-29T08:52:50.162Z,37.81
2019-01-29T08:53:46.855Z,38.94
2019-01-29T08:54:43.698Z,39.31
2019-01-29T08:55:41.425Z,39.31
2019-01-29T08:56:38.444Z,39.19
2019-01-29T08:57:35.077Z,39.00
2019-01-29T08:58:34.684Z,38.81
2019-01-29T08:59:31.309Z,38.63
2019-01-29T09:00:27.940Z,38.44
2019-01-29T09:01:24.569Z,38.25
2019-01-29T09:02:21.198Z,38.00
2019-01-29T09:03:18.222Z,37.56
2019-01-29T09:04:14.843Z,36.94
2019-01-29T09:05:11.762Z,36.00
2019-01-29T09:06:08.377Z,34.75
2019-01-29T09:07:04.989Z,33.44
2019-01-29T09:08:01.599Z,32.38
2019-01-29T09:08:58.544Z,32.13
2019-01-29T09:09:55.151Z,33.00
2019-01-29T09:10:51.782Z,34.56
2019-01-29T09:11:48.414Z,36.25
2019-01-29T09:12:45.092Z,37.81
2019-01-29T09:13:41.775Z,38.81
2019-01-29T09:14:38.491Z,39.13
2019-01-29T09:15:35.270Z,39.13
2019-01-29T09:16:31.971Z,39.00
2019-01-29T09:17:28.594Z,38.81
2019-01-29T09:18:25.209Z,38.63
2019-01-29T09:19:21.827Z,38.50
2019-01-29T09:20:18.435Z,38.31
2019-01-29T09:21:15.086Z,38.06
2019-01-29T09:22:11.892Z,37.69
2019-01-29T09:23:08.687Z,37.06
2019-01-29T09:24:05.333Z,36.25
2019-01-29T09:25:02.045Z,35.19
2019-01-29T09:25:58.706Z,33.94
2019-01-29T09:26:55.342Z,32.75
2019-01-29T09:27:51.948Z,32.06
2019-01-29T09:28:49.829Z,32.44
2019-01-29T09:29:46.439Z,33.88
2019-01-29T09:30:43.991Z,35.56
2019-01-29T09:31:44.026Z,37.25
2019-01-29T09:32:40.647Z,38.56
2019-01-29T09:33:37.266Z,39.06
2019-01-29T09:34:34.155Z,39.06
2019-01-29T09:35:30.893Z,38.94
2019-01-29T09:36:27.517Z,38.81
2019-01-29T09:37:24.170Z,38.56
2019-01-29T09:38:20.892Z,38.38
2019-01-29T09:39:17.547Z,38.19
2019-01-29T09:40:14.427Z,37.94
2019-01-29T09:41:11.056Z,37.56
2019-01-29T09:42:07.792Z,37.00
2019-01-29T09:43:04.423Z,36.19
2019-01-29T09:44:03.598Z,35.19
2019-01-29T09:45:03.034Z,33.94
2019-01-29T09:45:59.740Z,32.69
2019-01-29T09:46:56.364Z,32.00
2019-01-29T09:47:53.015Z,32.38
2019-01-29T09:48:49.602Z,33.75
2019-01-29T09:49:46.210Z,35.44
2019-01-29T09:50:43.158Z,37.06
2019-01-29T09:51:39.762Z,38.25
2019-01-29T09:52:36.680Z,38.69
2019-01-29T09:53:33.327Z,38.81
2019-01-29T09:54:29.994Z,38.69
2019-01-29T09:55:29.466Z,38.50
2019-01-29T09:56:26.460Z,38.13
2019-01-29T09:57:23.150Z,37.56
2019-01-29T09:58:19.779Z,36.69
2019-01-29T09:59:16.522Z,35.56
2019-01-29T10:00:13.267Z,34.44
2019-01-29T10:01:10.044Z,33.31
2019-01-29T10:02:06.843Z,32.38
2019-01-29T10:03:03.473Z,31.69
2019-01-29T10:04:00.390Z,30.94
2019-01-29T10:04:57.027Z,30.25
2019-01-29T10:05:53.629Z,29.63
2019-01-29T10:06:50.239Z,29.19
2019-01-29T10:07:47.332Z,28.81
2019-01-29T10:08:43.999Z,28.56
2019-01-29T10:09:40.751Z,28.38
2019-01-29T10:10:37.438Z,28.19
2019-01-29T10:11:34.107Z,28.06
2019-01-29T10:12:31.187Z,28.00
2019-01-29T10:13:27.847Z,27.87
2019-01-29T10:14:24.513Z,27.81
2019-01-29T10:15:21.259Z,27.75
2019-01-29T10:16:17.949Z,27.62
2019-01-29T10:17:14.762Z,27.56
2019-01-29T10:18:11.519Z,27.50
2019-01-29T10:19:08.431Z,27.44
2019-01-29T10:20:06.304Z,27.37
2019-01-29T10:21:03.358Z,27.31
2019-01-29T10:22:00.068Z,27.19
2019-01-29T10:22:59.749Z,27.13
2019-01-29T10:23:56.533Z,27.06
2019-01-29T10:24:53.208Z,27.00
2019-01-29T10:25:49.823Z,26.94
2019-01-29T10:26:46.446Z,26.87
2019-01-29T10:27:43.066Z,26.81
2019-01-29T10:28:39.742Z,26.69
2019-01-29T10:29:36.466Z,26.62
2019-01-29T10:30:33.106Z,26.56
2019-01-29T10:31:29.730Z,26.56
2019-01-29T10:32:26.361Z,26.44
2019-01-29T10:33:22.993Z,26.37
2019-01-29T10:34:19.713Z,26.31
2019-01-29T10:35:16.330Z,26.25
2019-01-29T10:36:13.003Z,26.25
2019-01-29T10:37:09.623Z,26.19
2019-01-29T10:38:06.250Z,26.12
2019-01-29T10:39:05.072Z,26.06
2019-01-29T10:40:01.803Z,26.00
2019-01-29T10:41:00.057Z,25.94
2019-01-29T10:41:56.775Z,25.88
2019-01-29T10:42:53.543Z,25.81
2019-01-29T10:43:50.168Z,25.75
2019-01-29T10:44:46.959Z,25.69
2019-01-29T10:45:43.606Z,25.69
2019-01-29T10:46:40.209Z,25.62
2019-01-29T10:47:36.906Z,25.56
2019-01-29T10:48:35.346Z,25.50
2019-01-29T10:49:32.072Z,25.50
2019-01-29T10:50:28.823Z,25.44
2019-01-29T10:51:25.463Z,25.37
2019-01-29T10:52:22.074Z,25.31
2019-01-29T10:53:18.679Z,25.31
2019-01-29T10:54:15.299Z,25.25
2019-01-29T10:55:14.939Z,25.19
2019-01-29T10:56:11.675Z,25.12
2019-01-29T10:57:10.178Z,25.12
2019-01-29T10:58:06.859Z,25.06
2019-01-29T10:59:03.482Z,25.00
2019-01-29T11:00:00.287Z,25.00
2019-01-29T11:00:56.967Z,24.94
2019-01-29T11:01:53.623Z,24.87
2019-01-29T11:02:50.356Z,24.87
2019-01-29T11:03:47.110Z,24.81
2019-01-29T11:04:43.771Z,24.81
2019-01-29T11:05:40.706Z,24.75
2019-01-29T11:06:37.447Z,24.69
2019-01-29T11:07:34.107Z,24.69
2019-01-29T11:08:31.309Z,24.63
2019-01-29T11:09:27.998Z,24.63
2019-01-29T11:10:24.632Z,24.56
2019-01-29T11:11:21.246Z,24.56
2019-01-29T11:12:17.991Z,24.50
2019-01-29T11:13:14.646Z,24.50
2019-01-29T11:14:11.319Z,24.44
2019-01-29T11:15:09.388Z,24.37
2019-01-29T11:16:06.091Z,24.37
2019-01-29T11:17:02.711Z,24.31
2019-01-29T11:17:59.525Z,24.31
2019-01-29T11:19:03.177Z,24.31
2019-01-29T11:19:55.746Z,24.25
2019-01-29T11:20:52.352Z,24.25
2019-01-29T11:21:49.255Z,24.19
2019-01-29T11:22:45.951Z,24.19
2019-01-29T11:23:42.602Z,24.12
2019-01-29T11:24:39.396Z,24.12
2019-01-29T11:25:36.117Z,24.06
2019-01-29T11:26:33.018Z,24.06
2019-01-29T11:27:31.017Z,24.00
2019-01-29T11:28:29.106Z,24.00
2019-01-29T11:29:25.722Z,23.94
2019-01-29T11:30:25.208Z,23.94
2019-01-29T11:31:21.832Z,23.87
2019-01-29T11:32:18.558Z,23.87
2019-01-29T11:33:15.288Z,23.87
2019-01-29T11:34:11.933Z,23.81
2019-01-29T11:35:08.938Z,23.81
2019-01-29T11:36:05.624Z,23.75
2019-01-29T11:37:02.247Z,23.75
2019-01-29T11:37:58.968Z,23.69
2019-01-29T11:38:55.751Z,23.69
2019-01-29T11:39:54.769Z,23.69
2019-01-29T11:40:51.374Z,23.62
2019-01-29T11:41:47.995Z,23.62
2019-01-29T11:42:44.757Z,23.62
2019-01-29T11:43:41.534Z,23.56
2019-01-29T11:44:38.158Z,23.56
2019-01-29T11:45:35.142Z,23.50
2019-01-29T11:46:31.842Z,23.50
2019-01-29T11:47:28.482Z,23.50
2019-01-29T11:48:25.122Z,23.44
2019-01-29T11:49:21.883Z,23.44
2019-01-29T11:50:18.480Z,23.44
2019-01-29T11:51:15.118Z,23.38
2019-01-29T11:52:11.854Z,23.38
2019-01-29T11:53:08.580Z,23.31
2019-01-29T11:54:05.283Z,23.31
2019-01-29T11:55:01.918Z,23.31
2019-01-29T11:56:04.409Z,23.25
2019-01-29T11:56:57.059Z,23.56
2019-01-29T11:57:53.972Z,23.81
2019-01-29T11:58:50.784Z,24.25
2019-01-29T11:59:47.513Z,24.81
2019-01-29T12:01:18.763Z,26.06
2019-01-29T12:02:15.628Z,29.31
2019-01-29T12:03:12.339Z,31.31
2019-01-29T12:04:08.974Z,32.94
2019-01-29T12:05:06.647Z,34.13
2019-01-29T12:06:03.443Z,35.06
2019-01-29T12:07:03.024Z,35.75
2019-01-29T12:07:59.753Z,36.25
2019-01-29T12:08:56.495Z,36.63
2019-01-29T12:09:53.162Z,36.88
2019-01-29T12:10:49.899Z,37.19
2019-01-29T12:11:48.417Z,37.50
2019-01-29T12:12:47.109Z,37.81
2019-01-29T12:13:43.925Z,38.06
2019-01-29T12:14:40.579Z,38.31